Main page
METAR-TAF:

METAR-TAF

Airports :

Curaçao International Airport

Curaçao, Netherlands Antilles

latitude: 12-12N, longitude: 068-58W, elevation: 9 m

Current weather observation

The report was made 26 minutes ago, at 19:00 UTC
Wind 7 kt from the East, varying between Northeast and East/Southeast
Temperature 30°C
Humidity 75%
Pressure 1012 hPa
Visibility 10 km or more
Few clouds at a height of 1800 ft

METAR: TNCC 241900Z 08007KT 050V110 9999 FEW018 30/25 Q1012 NOSIG

Time: 15:26 (19:26 UTC)

Forecast

The report was made 2 hours and 11 minutes ago, at 17:15 UTC
Forecast valid from 24 at 18 UTC to 25 at 18 UTC
Wind 12 kt from the East
Visibility 10 km or more
Scattered clouds at a height of 1800 ft
Probability 40% :
Temporary
from 25 at 06 UTC to 25 at 12 UTC
Visibility: 5000 m
Broken clouds at a height of 1400 ft
rain showers

TAF: TNCC 241715Z 2418/2518 10012KT 9999 SCT018 PROB40 TEMPO 2506/2512 5000 SHRA BKN014

Weather observations and forecasts of more than 4000 airports (METAR and TAF reports).

The available stations are represented by yellow and red dots on the map.

Hover mouse over dot to see the name of the station.

Then click to see weather observations and forecasts.

To change the map : click on the green buttons with a black cross to zoom in, on the green button with a dash to zoom out, or on the green arrows for adjacent maps.


METAR-TAF: